createdAt,value
2024-05-09T00:01:11.789Z,100401.68
2024-05-09T00:04:18.557Z,100397.62
2024-05-09T00:07:20.713Z,100401.05
2024-05-09T00:10:50.656Z,100402.60
2024-05-09T00:13:52.659Z,100400.82
2024-05-09T00:17:17.941Z,100397.13
2024-05-09T00:20:35.294Z,100393.70
2024-05-09T00:23:43.186Z,100390.91
2024-05-09T00:27:25.359Z,100388.68
2024-05-09T00:30:47.349Z,100391.77
2024-05-09T00:33:59.712Z,100391.83
2024-05-09T00:37:01.749Z,100394.84
2024-05-09T00:40:34.697Z,100400.25
2024-05-09T00:43:41.020Z,100399.17
2024-05-09T00:46:45.428Z,100400.06
2024-05-09T00:49:48.538Z,100400.51
2024-05-09T00:53:31.091Z,100399.30
2024-05-09T00:56:41.510Z,100394.81
2024-05-09T00:59:43.880Z,100397.67
2024-05-09T01:03:06.213Z,100397.67
2024-05-09T01:06:08.497Z,100396.79
2024-05-09T01:09:15.926Z,100396.69
2024-05-09T01:12:20.670Z,100393.30
2024-05-09T01:15:28.590Z,100390.26
2024-05-09T01:19:05.029Z,100389.66
2024-05-09T01:22:09.808Z,100390.75
2024-05-09T01:25:24.066Z,100387.86
2024-05-09T01:28:34.915Z,100385.12
2024-05-09T01:31:59.832Z,100389.23
2024-05-09T01:35:28.652Z,100391.42
2024-05-09T01:39:31.000Z,100390.50
2024-05-09T01:42:53.011Z,100381.63
2024-05-09T01:46:37.388Z,100386.70
2024-05-09T01:49:40.636Z,100389.58
2024-05-09T01:53:15.767Z,100392.10
2024-05-09T01:56:17.582Z,100395.05
2024-05-09T01:59:40.195Z,100393.64
2024-05-09T02:02:45.768Z,100393.45
2024-05-09T02:05:50.425Z,100397.11
2024-05-09T02:08:52.239Z,100398.36
2024-05-09T02:11:54.265Z,100398.04
2024-05-09T02:15:19.678Z,100399.63
2024-05-09T02:18:24.381Z,100405.08
2024-05-09T02:21:26.259Z,100403.70
2024-05-09T02:24:51.095Z,100398.02
2024-05-09T02:27:55.600Z,100399.37
2024-05-09T02:31:00.831Z,100397.89
2024-05-09T02:34:08.085Z,100396.86
2024-05-09T02:37:12.970Z,100397.34
2024-05-09T02:40:25.219Z,100402.55
2024-05-09T02:43:30.896Z,100399.87
2024-05-09T02:46:35.224Z,100397.64
2024-05-09T02:50:05.960Z,100398.72
2024-05-09T02:53:09.503Z,100401.11
2024-05-09T02:56:12.086Z,100400.60
2024-05-09T02:59:13.978Z,100402.66
2024-05-09T03:02:18.118Z,100405.05
2024-05-09T03:05:22.299Z,100403.67
2024-05-09T03:08:24.316Z,100406.84
2024-05-09T03:11:26.664Z,100413.70
2024-05-09T03:14:31.183Z,100413.73
2024-05-09T03:17:33.121Z,100411.81
2024-05-09T03:20:36.348Z,100407.88
2024-05-09T03:23:42.391Z,100414.04
2024-05-09T03:26:44.826Z,100413.86
2024-05-09T03:29:49.937Z,100410.63
2024-05-09T03:32:51.999Z,100412.32
2024-05-09T03:35:54.016Z,100413.42
2024-05-09T03:38:58.420Z,100414.36
2024-05-09T03:42:00.427Z,100417.38
2024-05-09T03:45:02.096Z,100413.95
2024-05-09T03:48:04.374Z,100419.90
2024-05-09T03:51:39.701Z,100420.46
2024-05-09T03:54:47.466Z,100416.90
2024-05-09T03:57:49.145Z,100411.35
2024-05-09T04:01:11.726Z,100408.10
2024-05-09T04:04:13.683Z,100409.05
2024-05-09T04:07:15.758Z,100408.97
2024-05-09T04:10:27.383Z,100410.73
2024-05-09T04:13:33.072Z,100417.00
2024-05-09T04:16:34.888Z,100416.98
2024-05-09T04:19:59.512Z,100416.48
2024-05-09T04:23:04.389Z,100422.45
2024-05-09T04:26:08.779Z,100422.61
2024-05-09T04:29:16.469Z,100425.11
2024-05-09T04:32:43.710Z,100426.35
2024-05-09T04:36:03.715Z,100426.91
2024-05-09T04:39:36.031Z,100425.69
2024-05-09T04:42:40.839Z,100428.31
2024-05-09T04:45:45.611Z,100432.42
2024-05-09T04:48:48.717Z,100432.98
2024-05-09T04:51:58.138Z,100431.67
2024-05-09T04:55:03.096Z,100433.91
2024-05-09T04:58:07.095Z,100435.20
2024-05-09T05:01:11.712Z,100434.14
2024-05-09T05:04:13.383Z,100435.97
2024-05-09T05:07:15.152Z,100431.77
2024-05-09T05:10:25.094Z,100439.58
2024-05-09T05:13:32.397Z,100439.15
2024-05-09T05:16:34.227Z,100442.24
2024-05-09T05:19:39.135Z,100443.67
2024-05-09T05:22:43.074Z,100444.64
2024-05-09T05:25:47.874Z,100442.53
2024-05-09T05:29:10.164Z,100435.43
2024-05-09T05:32:12.720Z,100431.25
2024-05-09T05:35:35.184Z,100432.91
2024-05-09T05:38:59.481Z,100431.34
2024-05-09T05:42:01.308Z,100432.80
2024-05-09T05:45:26.017Z,100429.90
2024-05-09T05:48:33.281Z,100433.42
2024-05-09T05:51:38.550Z,100429.83
2024-05-09T05:54:40.549Z,100432.51
2024-05-09T05:57:43.597Z,100434.98
2024-05-09T06:00:45.589Z,100437.23
2024-05-09T06:03:47.475Z,100432.98
2024-05-09T06:06:49.445Z,100435.98
2024-05-09T06:09:51.303Z,100433.30
2024-05-09T06:12:53.229Z,100435.90
2024-05-09T06:15:55.029Z,100435.96
2024-05-09T06:18:59.908Z,100435.88
2024-05-09T06:22:02.963Z,100433.66
2024-05-09T06:25:08.209Z,100429.18
2024-05-09T06:28:12.691Z,100425.68
2024-05-09T06:31:14.656Z,100429.90
2024-05-09T06:34:18.801Z,100428.98
2024-05-09T06:37:51.403Z,100426.83
2024-05-09T06:41:05.818Z,100426.23
2024-05-09T06:44:20.024Z,100428.53
2024-05-09T06:47:21.923Z,100428.40
2024-05-09T06:50:35.244Z,100425.10
2024-05-09T06:53:40.608Z,100424.52
2024-05-09T06:56:44.847Z,100425.08
2024-05-09T06:59:59.648Z,100426.10
2024-05-09T07:03:19.667Z,100423.21
2024-05-09T07:06:21.880Z,100422.98
2024-05-09T07:09:35.864Z,100423.98
2024-05-09T07:12:37.596Z,100423.55
2024-05-09T07:15:40.858Z,100426.52
2024-05-09T07:18:42.990Z,100426.23
2024-05-09T07:21:47.741Z,100422.39
2024-05-09T07:24:49.500Z,100420.73
2024-05-09T07:27:53.921Z,100420.73
2024-05-09T07:30:55.649Z,100418.86
2024-05-09T07:33:58.782Z,100415.34
2024-05-09T07:37:01.923Z,100414.23
2024-05-09T07:40:07.430Z,100415.77
2024-05-09T07:43:14.101Z,100415.15
2024-05-09T07:47:14.207Z,100416.86
2024-05-09T07:51:32.568Z,100410.95
2024-05-09T07:53:36.653Z,100408.44
2024-05-09T07:56:30.545Z,100407.22
2024-05-09T07:59:53.052Z,100411.98
2024-05-09T08:02:55.071Z,100413.43
2024-05-09T08:06:01.672Z,100409.85
2024-05-09T08:09:08.056Z,100413.12
2024-05-09T08:12:19.371Z,100409.23
2024-05-09T08:15:21.074Z,100406.23
2024-05-09T08:18:25.546Z,100405.08
2024-05-09T08:21:29.594Z,100402.05
2024-05-09T08:24:31.635Z,100401.01
2024-05-09T08:27:33.520Z,100397.33
2024-05-09T08:30:37.419Z,100395.59
2024-05-09T08:33:51.395Z,100396.14
2024-05-09T08:36:54.094Z,100395.65
2024-05-09T08:39:56.135Z,100400.52
2024-05-09T08:43:01.498Z,100395.79
2024-05-09T08:46:06.138Z,100397.79
2024-05-09T08:49:08.426Z,100396.33
2024-05-09T08:52:10.444Z,100396.55
2024-05-09T08:55:12.916Z,100394.64
2024-05-09T08:58:19.701Z,100392.45
2024-05-09T09:01:22.859Z,100394.59
2024-05-09T09:04:25.217Z,100396.56
2024-05-09T09:07:30.040Z,100393.86
2024-05-09T09:10:35.221Z,100395.14
2024-05-09T09:13:42.476Z,100395.31
2024-05-09T09:16:45.957Z,100393.28
2024-05-09T09:19:48.078Z,100393.41
2024-05-09T09:22:50.033Z,100385.43
2024-05-09T09:26:03.546Z,100387.39
2024-05-09T09:29:05.259Z,100388.79
2024-05-09T09:32:11.181Z,100391.02
2024-05-09T09:35:12.978Z,100388.79
2024-05-09T09:38:39.887Z,100381.73
2024-05-09T09:41:46.775Z,100376.88
2024-05-09T09:44:58.215Z,100379.19
2024-05-09T09:48:08.039Z,100385.27
2024-05-09T09:51:10.667Z,100386.64
2024-05-09T09:54:13.618Z,100382.95
2024-05-09T09:57:18.196Z,100380.70
2024-05-09T10:00:27.158Z,100382.21
2024-05-09T10:03:34.520Z,100382.41
2024-05-09T10:06:42.274Z,100378.42
2024-05-09T10:10:06.876Z,100375.45
2024-05-09T10:13:09.025Z,100374.13
2024-05-09T10:16:11.591Z,100372.33
2024-05-09T10:19:46.496Z,100370.60
2024-05-09T10:22:52.013Z,100371.73
2024-05-09T10:25:58.462Z,100370.62
2024-05-09T10:29:03.270Z,100366.06
2024-05-09T10:32:05.516Z,100362.34
2024-05-09T10:35:08.962Z,100364.73
2024-05-09T10:38:12.569Z,100359.15
2024-05-09T10:41:16.739Z,100357.64
2024-05-09T10:44:18.679Z,100351.13
2024-05-09T10:47:21.245Z,100351.11
2024-05-09T10:50:28.580Z,100346.63
2024-05-09T10:53:56.646Z,100346.98
2024-05-09T10:56:58.513Z,100341.60
2024-05-09T11:00:00.176Z,100340.21
2024-05-09T11:03:02.032Z,100339.48
2024-05-09T11:06:04.268Z,100334.94
2024-05-09T11:09:06.862Z,100331.41
2024-05-09T11:12:28.917Z,100321.67
2024-05-09T11:15:43.005Z,100323.22
2024-05-09T11:18:54.606Z,100315.55
2024-05-09T11:21:58.268Z,100316.91
2024-05-09T11:25:04.462Z,100315.16
2024-05-09T11:28:07.760Z,100318.91
2024-05-09T11:31:10.483Z,100314.41
2024-05-09T11:34:12.765Z,100315.91
2024-05-09T11:37:14.812Z,100309.67
2024-05-09T11:40:24.345Z,100307.08
2024-05-09T11:43:27.751Z,100306.94
2024-05-09T11:46:29.685Z,100308.30
2024-05-09T11:49:31.585Z,100311.20
2024-05-09T11:52:33.446Z,100306.06
2024-05-09T11:55:38.118Z,100303.02
2024-05-09T11:58:41.404Z,100300.77
2024-05-09T12:01:43.320Z,100301.88
2024-05-09T12:04:46.819Z,100303.36
2024-05-09T12:07:48.804Z,100302.46
2024-05-09T12:10:50.692Z,100304.16
2024-05-09T12:13:54.859Z,100304.23
2024-05-09T12:17:01.016Z,100303.84
2024-05-09T12:20:04.304Z,100305.91
2024-05-09T12:23:12.175Z,100302.92
2024-05-09T12:26:15.645Z,100296.55
2024-05-09T12:29:18.021Z,100291.39
2024-05-09T12:32:20.004Z,100290.73
2024-05-09T12:35:21.774Z,100287.14
2024-05-09T12:38:23.767Z,100289.89
2024-05-09T12:41:25.871Z,100283.98
2024-05-09T12:44:27.463Z,100282.49
2024-05-09T12:47:29.729Z,100279.29
2024-05-09T12:50:33.602Z,100275.70
2024-05-09T12:53:36.521Z,100276.63
2024-05-09T12:56:38.196Z,100276.11
2024-05-09T12:59:42.272Z,100270.85
2024-05-09T13:02:44.001Z,100270.89
2024-05-09T13:05:46.384Z,100265.81
2024-05-09T13:08:48.245Z,100265.27
2024-05-09T13:11:50.053Z,100265.55
2024-05-09T13:15:01.088Z,100266.16
2024-05-09T13:18:06.725Z,100262.24
2024-05-09T13:21:08.661Z,100254.88
2024-05-09T13:24:10.413Z,100246.21
2024-05-09T13:27:14.954Z,100247.76
2024-05-09T13:30:28.816Z,100243.70
2024-05-09T13:33:55.539Z,100240.46
2024-05-09T13:36:57.467Z,100236.27
2024-05-09T13:40:00.604Z,100229.98
2024-05-09T13:43:05.396Z,100229.48
2024-05-09T13:46:07.576Z,100227.67
2024-05-09T13:49:12.384Z,100223.98
2024-05-09T13:52:14.648Z,100225.36
2024-05-09T13:55:16.467Z,100216.62
2024-05-09T13:58:23.207Z,100210.91
2024-05-09T14:01:28.657Z,100204.70
2024-05-09T14:04:30.622Z,100200.11
2024-05-09T14:07:32.635Z,100202.76
2024-05-09T14:10:35.476Z,100203.06
2024-05-09T14:13:39.572Z,100204.33
2024-05-09T14:16:44.661Z,100193.67
2024-05-09T14:20:13.999Z,100192.38
2024-05-09T14:23:19.852Z,100197.52
2024-05-09T14:26:21.680Z,100192.26
2024-05-09T14:29:23.633Z,100188.67
2024-05-09T14:32:25.525Z,100183.13
2024-05-09T14:35:30.102Z,100183.02
2024-05-09T14:38:32.002Z,100182.42
2024-05-09T14:41:33.789Z,100179.84
2024-05-09T14:44:35.476Z,100180.34
2024-05-09T14:47:37.380Z,100182.73
2024-05-09T14:50:40.750Z,100183.24
2024-05-09T14:53:43.127Z,100178.79
2024-05-09T14:56:44.902Z,100179.38
2024-05-09T14:59:46.510Z,100177.67
2024-05-09T15:02:51.041Z,100175.98
2024-05-09T15:05:53.327Z,100167.43
2024-05-09T15:08:57.352Z,100163.88
2024-05-09T15:12:01.768Z,100164.83
2024-05-09T15:15:04.018Z,100160.97
2024-05-09T15:18:06.413Z,100154.27
2024-05-09T15:21:08.545Z,100149.69
2024-05-09T15:24:10.302Z,100148.77
2024-05-09T15:27:12.519Z,100147.42
2024-05-09T15:33:17.440Z,100140.29
2024-05-09T15:36:20.341Z,100141.92
2024-05-09T15:39:30.409Z,100145.38
2024-05-09T15:42:32.426Z,100141.58
